sensor_id;sensor_type;location;lat;lon;timestamp;P1;durP1;ratioP1;P2;durP2;ratioP2
25015;SDS011;13029;46.286;7.488;2022-08-19T00:01:43;5.28;;;3.80;;
25015;SDS011;13029;46.286;7.488;2022-08-19T00:04:11;5.20;;;3.75;;
25015;SDS011;13029;46.286;7.488;2022-08-19T00:06:37;7.15;;;4.03;;
25015;SDS011;13029;46.286;7.488;2022-08-19T00:09:04;4.57;;;3.95;;
25015;SDS011;13029;46.286;7.488;2022-08-19T00:11:30;4.10;;;3.70;;
25015;SDS011;13029;46.286;7.488;2022-08-19T00:13:56;5.43;;;4.30;;
25015;SDS011;13029;46.286;7.488;2022-08-19T00:16:21;4.75;;;3.67;;
25015;SDS011;13029;46.286;7.488;2022-08-19T00:18:47;4.25;;;3.75;;
25015;SDS011;13029;46.286;7.488;2022-08-19T00:21:13;6.53;;;4.35;;
25015;SDS011;13029;46.286;7.488;2022-08-19T00:23:39;7.60;;;4.10;;
25015;SDS011;13029;46.286;7.488;2022-08-19T00:26:05;6.30;;;4.13;;
25015;SDS011;13029;46.286;7.488;2022-08-19T00:28:32;7.47;;;4.70;;
25015;SDS011;13029;46.286;7.488;2022-08-19T00:30:57;4.47;;;4.03;;
25015;SDS011;13029;46.286;7.488;2022-08-19T00:33:23;5.05;;;4.50;;
25015;SDS011;13029;46.286;7.488;2022-08-19T00:35:48;8.68;;;5.00;;
25015;SDS011;13029;46.286;7.488;2022-08-19T00:38:14;5.07;;;4.57;;
25015;SDS011;13029;46.286;7.488;2022-08-19T00:40:40;6.15;;;4.57;;
25015;SDS011;13029;46.286;7.488;2022-08-19T00:43:09;4.85;;;4.10;;
25015;SDS011;13029;46.286;7.488;2022-08-19T00:45:35;4.93;;;4.43;;
25015;SDS011;13029;46.286;7.488;2022-08-19T00:48:01;5.75;;;4.80;;
25015;SDS011;13029;46.286;7.488;2022-08-19T00:50:29;5.78;;;4.30;;
25015;SDS011;13029;46.286;7.488;2022-08-19T00:52:55;5.38;;;3.95;;
25015;SDS011;13029;46.286;7.488;2022-08-19T00:55:23;4.97;;;4.13;;
25015;SDS011;13029;46.286;7.488;2022-08-19T00:57:55;4.78;;;4.35;;
25015;SDS011;13029;46.286;7.488;2022-08-19T01:00:22;5.78;;;4.05;;
25015;SDS011;13029;46.286;7.488;2022-08-19T01:02:49;6.45;;;4.65;;
25015;SDS011;13029;46.286;7.488;2022-08-19T01:05:16;6.05;;;4.35;;
25015;SDS011;13029;46.286;7.488;2022-08-19T01:07:43;5.93;;;4.53;;
25015;SDS011;13029;46.286;7.488;2022-08-19T01:10:10;7.53;;;4.50;;
25015;SDS011;13029;46.286;7.488;2022-08-19T01:12:38;7.63;;;4.85;;
25015;SDS011;13029;46.286;7.488;2022-08-19T01:15:05;5.25;;;4.60;;
25015;SDS011;13029;46.286;7.488;2022-08-19T01:17:32;5.82;;;4.47;;
25015;SDS011;13029;46.286;7.488;2022-08-19T01:19:58;5.90;;;4.80;;
25015;SDS011;13029;46.286;7.488;2022-08-19T01:24:49;5.17;;;4.57;;
25015;SDS011;13029;46.286;7.488;2022-08-19T01:27:15;6.00;;;5.15;;
25015;SDS011;13029;46.286;7.488;2022-08-19T01:29:41;6.13;;;4.57;;
25015;SDS011;13029;46.286;7.488;2022-08-19T01:32:08;5.03;;;4.35;;
25015;SDS011;13029;46.286;7.488;2022-08-19T01:34:37;7.32;;;5.28;;
25015;SDS011;13029;46.286;7.488;2022-08-19T01:37:06;5.18;;;4.47;;
25015;SDS011;13029;46.286;7.488;2022-08-19T01:39:36;5.10;;;4.60;;
25015;SDS011;13029;46.286;7.488;2022-08-19T01:42:02;6.18;;;4.85;;
25015;SDS011;13029;46.286;7.488;2022-08-19T01:44:28;5.18;;;4.68;;
25015;SDS011;13029;46.286;7.488;2022-08-19T01:46:53;5.28;;;4.78;;
25015;SDS011;13029;46.286;7.488;2022-08-19T01:49:19;6.03;;;4.70;;
25015;SDS011;13029;46.286;7.488;2022-08-19T01:51:46;5.38;;;4.88;;
25015;SDS011;13029;46.286;7.488;2022-08-19T01:54:13;9.02;;;5.45;;
25015;SDS011;13029;46.286;7.488;2022-08-19T01:56:40;4.47;;;4.07;;
25015;SDS011;13029;46.286;7.488;2022-08-19T01:59:09;5.43;;;4.70;;
25015;SDS011;13029;46.286;7.488;2022-08-19T02:01:36;7.70;;;4.82;;
25015;SDS011;13029;46.286;7.488;2022-08-19T02:04:01;5.10;;;4.18;;
25015;SDS011;13029;46.286;7.488;2022-08-19T02:06:27;6.60;;;4.03;;
25015;SDS011;13029;46.286;7.488;2022-08-19T02:08:53;4.07;;;3.67;;
25015;SDS011;13029;46.286;7.488;2022-08-19T02:11:20;6.30;;;3.50;;
25015;SDS011;13029;46.286;7.488;2022-08-19T02:13:47;5.57;;;3.88;;
25015;SDS011;13029;46.286;7.488;2022-08-19T02:16:14;5.10;;;3.55;;
25015;SDS011;13029;46.286;7.488;2022-08-19T02:18:40;4.68;;;4.03;;
25015;SDS011;13029;46.286;7.488;2022-08-19T02:21:05;4.88;;;3.88;;
25015;SDS011;13029;46.286;7.488;2022-08-19T02:23:31;6.50;;;4.05;;
25015;SDS011;13029;46.286;7.488;2022-08-19T02:25:56;9.75;;;4.65;;
25015;SDS011;13029;46.286;7.488;2022-08-19T02:28:21;7.03;;;4.40;;
25015;SDS011;13029;46.286;7.488;2022-08-19T02:30:47;6.82;;;4.65;;
25015;SDS011;13029;46.286;7.488;2022-08-19T02:33:13;5.07;;;4.68;;
25015;SDS011;13029;46.286;7.488;2022-08-19T02:35:40;7.72;;;5.20;;
25015;SDS011;13029;46.286;7.488;2022-08-19T02:38:07;6.88;;;5.07;;
25015;SDS011;13029;46.286;7.488;2022-08-19T02:40:55;6.25;;;5.35;;
25015;SDS011;13029;46.286;7.488;2022-08-19T02:43:26;6.53;;;5.65;;
25015;SDS011;13029;46.286;7.488;2022-08-19T02:45:52;7.85;;;6.05;;
25015;SDS011;13029;46.286;7.488;2022-08-19T02:48:19;8.05;;;5.78;;
25015;SDS011;13029;46.286;7.488;2022-08-19T02:50:46;7.88;;;6.13;;
25015;SDS011;13029;46.286;7.488;2022-08-19T02:53:13;6.60;;;5.75;;
25015;SDS011;13029;46.286;7.488;2022-08-19T02:55:45;7.18;;;5.53;;
25015;SDS011;13029;46.286;7.488;2022-08-19T02:58:11;7.65;;;5.40;;
25015;SDS011;13029;46.286;7.488;2022-08-19T03:00:45;7.30;;;5.45;;
25015;SDS011;13029;46.286;7.488;2022-08-19T03:03:12;6.03;;;5.45;;
25015;SDS011;13029;46.286;7.488;2022-08-19T03:05:37;6.93;;;5.05;;
25015;SDS011;13029;46.286;7.488;2022-08-19T03:08:03;8.00;;;5.38;;
25015;SDS011;13029;46.286;7.488;2022-08-19T03:10:29;6.50;;;4.82;;
25015;SDS011;13029;46.286;7.488;2022-08-19T03:12:54;6.97;;;5.70;;
25015;SDS011;13029;46.286;7.488;2022-08-19T03:15:19;7.03;;;5.90;;
25015;SDS011;13029;46.286;7.488;2022-08-19T03:17:45;6.65;;;5.97;;
25015;SDS011;13029;46.286;7.488;2022-08-19T03:20:10;7.07;;;6.38;;
25015;SDS011;13029;46.286;7.488;2022-08-19T03:22:35;7.15;;;6.45;;
25015;SDS011;13029;46.286;7.488;2022-08-19T03:25:01;9.48;;;7.45;;
25015;SDS011;13029;46.286;7.488;2022-08-19T03:27:26;8.55;;;7.25;;
25015;SDS011;13029;46.286;7.488;2022-08-19T03:29:52;10.98;;;7.72;;
25015;SDS011;13029;46.286;7.488;2022-08-19T03:32:17;9.20;;;8.40;;
25015;SDS011;13029;46.286;7.488;2022-08-19T03:34:42;10.23;;;7.63;;
25015;SDS011;13029;46.286;7.488;2022-08-19T03:37:09;9.15;;;7.95;;
25015;SDS011;13029;46.286;7.488;2022-08-19T03:39:37;9.77;;;7.47;;
25015;SDS011;13029;46.286;7.488;2022-08-19T03:42:03;9.02;;;7.55;;
25015;SDS011;13029;46.286;7.488;2022-08-19T03:44:29;9.82;;;8.48;;
25015;SDS011;13029;46.286;7.488;2022-08-19T03:46:56;11.30;;;8.77;;
25015;SDS011;13029;46.286;7.488;2022-08-19T03:49:23;12.57;;;9.15;;
25015;SDS011;13029;46.286;7.488;2022-08-19T03:51:50;8.98;;;8.00;;
25015;SDS011;13029;46.286;7.488;2022-08-19T03:54:17;14.30;;;8.20;;
25015;SDS011;13029;46.286;7.488;2022-08-19T03:56:44;8.48;;;7.57;;
25015;SDS011;13029;46.286;7.488;2022-08-19T03:59:13;9.32;;;7.72;;
25015;SDS011;13029;46.286;7.488;2022-08-19T04:01:41;9.73;;;8.73;;
25015;SDS011;13029;46.286;7.488;2022-08-19T04:04:07;11.07;;;9.60;;
25015;SDS011;13029;46.286;7.488;2022-08-19T04:06:33;11.77;;;9.85;;
25015;SDS011;13029;46.286;7.488;2022-08-19T04:09:01;12.73;;;11.27;;
25015;SDS011;13029;46.286;7.488;2022-08-19T04:11:29;13.80;;;12.40;;
25015;SDS011;13029;46.286;7.488;2022-08-19T04:13:56;13.15;;;11.77;;
25015;SDS011;13029;46.286;7.488;2022-08-19T04:16:22;260.63;;;15.98;;
25015;SDS011;13029;46.286;7.488;2022-08-19T04:18:49;28.45;;;7.63;;
25015;SDS011;13029;46.286;7.488;2022-08-19T04:21:18;174.57;;;12.27;;
25015;SDS011;13029;46.286;7.488;2022-08-19T04:23:45;104.28;;;9.27;;
25015;SDS011;13029;46.286;7.488;2022-08-19T04:26:14;415.90;;;18.35;;
25015;SDS011;13029;46.286;7.488;2022-08-19T04:28:41;218.00;;;13.15;;
25015;SDS011;13029;46.286;7.488;2022-08-19T04:31:11;374.13;;;18.00;;
25015;SDS011;13029;46.286;7.488;2022-08-19T04:33:38;286.40;;;16.60;;
25015;SDS011;13029;46.286;7.488;2022-08-19T04:36:03;101.30;;;10.48;;
25015;SDS011;13029;46.286;7.488;2022-08-19T04:38:28;33.83;;;7.78;;
25015;SDS011;13029;46.286;7.488;2022-08-19T04:40:54;5.15;;;4.65;;
25015;SDS011;13029;46.286;7.488;2022-08-19T04:43:38;4.85;;;4.30;;
25015;SDS011;13029;46.286;7.488;2022-08-19T04:46:07;4.57;;;3.55;;
25015;SDS011;13029;46.286;7.488;2022-08-19T04:48:37;3.55;;;3.25;;
25015;SDS011;13029;46.286;7.488;2022-08-19T04:51:05;3.75;;;3.25;;
25015;SDS011;13029;46.286;7.488;2022-08-19T04:53:34;3.08;;;2.72;;
25015;SDS011;13029;46.286;7.488;2022-08-19T04:56:03;2.90;;;2.58;;
25015;SDS011;13029;46.286;7.488;2022-08-19T04:58:30;3.40;;;2.78;;
25015;SDS011;13029;46.286;7.488;2022-08-19T05:00:55;3.22;;;2.92;;
25015;SDS011;13029;46.286;7.488;2022-08-19T05:03:20;4.90;;;2.78;;
25015;SDS011;13029;46.286;7.488;2022-08-19T05:05:47;3.17;;;2.88;;
25015;SDS011;13029;46.286;7.488;2022-08-19T05:08:14;3.47;;;3.17;;
25015;SDS011;13029;46.286;7.488;2022-08-19T05:10:44;3.17;;;2.83;;
25015;SDS011;13029;46.286;7.488;2022-08-19T05:13:11;3.90;;;3.25;;
25015;SDS011;13029;46.286;7.488;2022-08-19T05:15:37;6.35;;;3.95;;
25015;SDS011;13029;46.286;7.488;2022-08-19T05:18:02;4.63;;;3.20;;
25015;SDS011;13029;46.286;7.488;2022-08-19T05:20:46;6.15;;;2.20;;
25015;SDS011;13029;46.286;7.488;2022-08-19T05:23:30;3.13;;;2.40;;
25015;SDS011;13029;46.286;7.488;2022-08-19T05:25:56;3.78;;;2.45;;
25015;SDS011;13029;46.286;7.488;2022-08-19T05:28:21;5.93;;;3.05;;
25015;SDS011;13029;46.286;7.488;2022-08-19T05:30:46;11.30;;;2.70;;
25015;SDS011;13029;46.286;7.488;2022-08-19T05:33:13;3.90;;;2.60;;
25015;SDS011;13029;46.286;7.488;2022-08-19T05:35:38;3.38;;;2.40;;
25015;SDS011;13029;46.286;7.488;2022-08-19T05:38:04;4.45;;;2.08;;
25015;SDS011;13029;46.286;7.488;2022-08-19T05:40:33;2.45;;;2.00;;
25015;SDS011;13029;46.286;7.488;2022-08-19T05:43:03;2.42;;;1.98;;
25015;SDS011;13029;46.286;7.488;2022-08-19T05:45:29;2.35;;;1.80;;
25015;SDS011;13029;46.286;7.488;2022-08-19T05:47:54;1.85;;;1.73;;
25015;SDS011;13029;46.286;7.488;2022-08-19T05:50:20;2.33;;;1.98;;
25015;SDS011;13029;46.286;7.488;2022-08-19T05:52:45;2.40;;;2.20;;
25015;SDS011;13029;46.286;7.488;2022-08-19T05:55:11;3.00;;;2.40;;
25015;SDS011;13029;46.286;7.488;2022-08-19T05:57:36;3.28;;;2.97;;
25015;SDS011;13029;46.286;7.488;2022-08-19T06:00:03;3.40;;;2.97;;
25015;SDS011;13029;46.286;7.488;2022-08-19T06:02:33;6.95;;;3.63;;
25015;SDS011;13029;46.286;7.488;2022-08-19T06:05:00;5.15;;;3.45;;
25015;SDS011;13029;46.286;7.488;2022-08-19T06:07:26;3.65;;;3.35;;
25015;SDS011;13029;46.286;7.488;2022-08-19T06:09:52;4.95;;;4.45;;
25015;SDS011;13029;46.286;7.488;2022-08-19T06:12:17;7.15;;;4.60;;
25015;SDS011;13029;46.286;7.488;2022-08-19T06:14:42;5.60;;;5.00;;
25015;SDS011;13029;46.286;7.488;2022-08-19T06:17:08;7.35;;;4.72;;
25015;SDS011;13029;46.286;7.488;2022-08-19T06:19:33;4.07;;;3.60;;
25015;SDS011;13029;46.286;7.488;2022-08-19T06:21:59;4.68;;;4.03;;
25015;SDS011;13029;46.286;7.488;2022-08-19T06:24:26;4.22;;;3.80;;
25015;SDS011;13029;46.286;7.488;2022-08-19T06:26:53;8.32;;;4.25;;
25015;SDS011;13029;46.286;7.488;2022-08-19T06:29:20;4.70;;;4.30;;
25015;SDS011;13029;46.286;7.488;2022-08-19T06:31:48;4.80;;;4.25;;
25015;SDS011;13029;46.286;7.488;2022-08-19T06:34:15;10.13;;;4.25;;
25015;SDS011;13029;46.286;7.488;2022-08-19T06:36:42;188.48;;;7.65;;
25015;SDS011;13029;46.286;7.488;2022-08-19T06:39:12;189.55;;;7.57;;
25015;SDS011;13029;46.286;7.488;2022-08-19T06:41:51;21.05;;;4.65;;
25015;SDS011;13029;46.286;7.488;2022-08-19T06:44:18;51.50;;;4.63;;
25015;SDS011;13029;46.286;7.488;2022-08-19T06:46:45;158.00;;;7.63;;
25015;SDS011;13029;46.286;7.488;2022-08-19T06:49:10;8.25;;;3.92;;
25015;SDS011;13029;46.286;7.488;2022-08-19T06:51:38;34.78;;;4.60;;
25015;SDS011;13029;46.286;7.488;2022-08-19T06:54:04;142.20;;;8.07;;
25015;SDS011;13029;46.286;7.488;2022-08-19T06:56:30;253.32;;;9.95;;
25015;SDS011;13029;46.286;7.488;2022-08-19T06:59:00;8.25;;;3.25;;
25015;SDS011;13029;46.286;7.488;2022-08-19T07:01:30;4.05;;;3.75;;
25015;SDS011;13029;46.286;7.488;2022-08-19T07:03:59;3.93;;;3.53;;
25015;SDS011;13029;46.286;7.488;2022-08-19T07:06:26;86.75;;;5.68;;
25015;SDS011;13029;46.286;7.488;2022-08-19T07:08:51;621.38;;;19.50;;
25015;SDS011;13029;46.286;7.488;2022-08-19T07:11:17;706.95;;;22.55;;
25015;SDS011;13029;46.286;7.488;2022-08-19T07:13:43;640.38;;;20.45;;
25015;SDS011;13029;46.286;7.488;2022-08-19T07:16:12;75.45;;;5.35;;
25015;SDS011;13029;46.286;7.488;2022-08-19T07:18:40;113.88;;;7.10;;
25015;SDS011;13029;46.286;7.488;2022-08-19T07:21:10;3.67;;;3.38;;
25015;SDS011;13029;46.286;7.488;2022-08-19T07:23:40;6.15;;;3.60;;
25015;SDS011;13029;46.286;7.488;2022-08-19T07:26:07;144.20;;;7.38;;
25015;SDS011;13029;46.286;7.488;2022-08-19T07:28:33;329.83;;;11.90;;
25015;SDS011;13029;46.286;7.488;2022-08-19T07:30:58;88.72;;;5.07;;
25015;SDS011;13029;46.286;7.488;2022-08-19T07:33:25;605.00;;;17.63;;
25015;SDS011;13029;46.286;7.488;2022-08-19T07:35:51;470.80;;;14.85;;
25015;SDS011;13029;46.286;7.488;2022-08-19T07:38:17;29.70;;;4.20;;
25015;SDS011;13029;46.286;7.488;2022-08-19T07:40:43;142.45;;;6.63;;
25015;SDS011;13029;46.286;7.488;2022-08-19T07:43:10;85.47;;;5.50;;
25015;SDS011;13029;46.286;7.488;2022-08-19T07:45:35;465.30;;;14.68;;
25015;SDS011;13029;46.286;7.488;2022-08-19T07:48:01;23.23;;;3.83;;
25015;SDS011;13029;46.286;7.488;2022-08-19T07:50:26;217.40;;;9.68;;
25015;SDS011;13029;46.286;7.488;2022-08-19T07:52:52;123.30;;;7.20;;
25015;SDS011;13029;46.286;7.488;2022-08-19T07:55:19;30.77;;;4.40;;
25015;SDS011;13029;46.286;7.488;2022-08-19T07:57:46;4.57;;;4.18;;
25015;SDS011;13029;46.286;7.488;2022-08-19T08:00:12;5.05;;;4.32;;
25015;SDS011;13029;46.286;7.488;2022-08-19T08:02:37;4.63;;;3.60;;
25015;SDS011;13029;46.286;7.488;2022-08-19T08:05:04;5.88;;;3.00;;
25015;SDS011;13029;46.286;7.488;2022-08-19T08:07:48;3.55;;;3.00;;
25015;SDS011;13029;46.286;7.488;2022-08-19T08:10:32;3.00;;;2.67;;
25015;SDS011;13029;46.286;7.488;2022-08-19T08:12:58;3.75;;;2.85;;
25015;SDS011;13029;46.286;7.488;2022-08-19T08:15:24;2.90;;;2.60;;
25015;SDS011;13029;46.286;7.488;2022-08-19T08:17:49;6.65;;;2.60;;
25015;SDS011;13029;46.286;7.488;2022-08-19T08:20:14;3.35;;;2.35;;
25015;SDS011;13029;46.286;7.488;2022-08-19T08:22:47;2.85;;;2.28;;
25015;SDS011;13029;46.286;7.488;2022-08-19T08:25:31;2.08;;;1.88;;
25015;SDS011;13029;46.286;7.488;2022-08-19T08:27:56;2.15;;;1.95;;
25015;SDS011;13029;46.286;7.488;2022-08-19T08:30:25;1.90;;;1.80;;
25015;SDS011;13029;46.286;7.488;2022-08-19T08:32:51;4.03;;;2.92;;
25015;SDS011;13029;46.286;7.488;2022-08-19T08:35:18;4.45;;;3.35;;
25015;SDS011;13029;46.286;7.488;2022-08-19T08:37:44;4.20;;;3.05;;
25015;SDS011;13029;46.286;7.488;2022-08-19T08:40:18;6.95;;;3.97;;
25015;SDS011;13029;46.286;7.488;2022-08-19T08:42:54;3.65;;;3.00;;
25015;SDS011;13029;46.286;7.488;2022-08-19T08:45:27;4.63;;;3.15;;
25015;SDS011;13029;46.286;7.488;2022-08-19T08:47:53;91.68;;;6.57;;
25015;SDS011;13029;46.286;7.488;2022-08-19T08:50:25;219.55;;;9.90;;
25015;SDS011;13029;46.286;7.488;2022-08-19T08:52:55;9.63;;;4.80;;
25015;SDS011;13029;46.286;7.488;2022-08-19T08:55:23;3.90;;;3.40;;
25015;SDS011;13029;46.286;7.488;2022-08-19T08:57:53;3.07;;;2.87;;
25015;SDS011;13029;46.286;7.488;2022-08-19T09:00:29;33.28;;;4.35;;
25015;SDS011;13029;46.286;7.488;2022-08-19T09:02:57;115.38;;;6.90;;
25015;SDS011;13029;46.286;7.488;2022-08-19T09:05:26;45.20;;;5.47;;
25015;SDS011;13029;46.286;7.488;2022-08-19T09:08:08;8.27;;;4.32;;
25015;SDS011;13029;46.286;7.488;2022-08-19T09:15:40;315.83;;;12.55;;
25015;SDS011;13029;46.286;7.488;2022-08-19T09:18:09;194.13;;;9.43;;
25015;SDS011;13029;46.286;7.488;2022-08-19T09:20:35;7.93;;;4.15;;
25015;SDS011;13029;46.286;7.488;2022-08-19T09:23:00;307.35;;;14.10;;
25015;SDS011;13029;46.286;7.488;2022-08-19T09:25:26;133.95;;;8.18;;
25015;SDS011;13029;46.286;7.488;2022-08-19T09:27:52;319.08;;;13.63;;
25015;SDS011;13029;46.286;7.488;2022-08-19T09:30:26;371.58;;;16.77;;
25015;SDS011;13029;46.286;7.488;2022-08-19T09:32:52;204.73;;;12.63;;
25015;SDS011;13029;46.286;7.488;2022-08-19T09:35:19;142.55;;;9.73;;
25015;SDS011;13029;46.286;7.488;2022-08-19T09:37:47;713.28;;;26.00;;
25015;SDS011;13029;46.286;7.488;2022-08-19T09:40:12;692.90;;;26.63;;
25015;SDS011;13029;46.286;7.488;2022-08-19T09:42:38;1199.63;;;43.97;;
25015;SDS011;13029;46.286;7.488;2022-08-19T09:45:03;209.20;;;13.10;;
25015;SDS011;13029;46.286;7.488;2022-08-19T09:47:29;5.75;;;4.13;;
25015;SDS011;13029;46.286;7.488;2022-08-19T09:49:54;3.13;;;2.83;;
25015;SDS011;13029;46.286;7.488;2022-08-19T09:52:20;143.75;;;8.13;;
25015;SDS011;13029;46.286;7.488;2022-08-19T09:54:45;623.33;;;24.60;;
25015;SDS011;13029;46.286;7.488;2022-08-19T09:57:11;1373.18;;;51.03;;
25015;SDS011;13029;46.286;7.488;2022-08-19T09:59:36;469.05;;;20.13;;
25015;SDS011;13029;46.286;7.488;2022-08-19T10:02:01;1103.88;;;41.33;;
25015;SDS011;13029;46.286;7.488;2022-08-19T10:04:27;771.70;;;29.65;;
25015;SDS011;13029;46.286;7.488;2022-08-19T10:07:12;820.28;;;31.33;;
25015;SDS011;13029;46.286;7.488;2022-08-19T10:09:38;715.55;;;27.58;;
25015;SDS011;13029;46.286;7.488;2022-08-19T10:12:05;969.92;;;36.55;;
25015;SDS011;13029;46.286;7.488;2022-08-19T10:14:32;452.90;;;19.83;;
25015;SDS011;13029;46.286;7.488;2022-08-19T10:16:57;837.00;;;33.25;;
25015;SDS011;13029;46.286;7.488;2022-08-19T10:19:24;607.90;;;25.15;;
25015;SDS011;13029;46.286;7.488;2022-08-19T10:21:50;770.92;;;32.95;;
25015;SDS011;13029;46.286;7.488;2022-08-19T10:24:15;831.25;;;33.72;;
25015;SDS011;13029;46.286;7.488;2022-08-19T10:26:40;7.40;;;6.18;;
25015;SDS011;13029;46.286;7.488;2022-08-19T10:29:12;6.35;;;5.57;;
25015;SDS011;13029;46.286;7.488;2022-08-19T10:31:40;70.68;;;8.40;;
25015;SDS011;13029;46.286;7.488;2022-08-19T10:34:06;312.80;;;16.83;;
25015;SDS011;13029;46.286;7.488;2022-08-19T10:36:32;8.65;;;7.00;;
25015;SDS011;13029;46.286;7.488;2022-08-19T10:39:01;10.60;;;7.95;;
25015;SDS011;13029;46.286;7.488;2022-08-19T10:41:30;7.85;;;6.53;;
25015;SDS011;13029;46.286;7.488;2022-08-19T10:44:01;6.78;;;4.13;;
25015;SDS011;13029;46.286;7.488;2022-08-19T10:46:30;2.53;;;2.30;;
25015;SDS011;13029;46.286;7.488;2022-08-19T10:48:57;3.58;;;2.78;;
25015;SDS011;13029;46.286;7.488;2022-08-19T10:51:24;32.90;;;7.60;;
25015;SDS011;13029;46.286;7.488;2022-08-19T10:54:08;262.33;;;15.15;;
25015;SDS011;13029;46.286;7.488;2022-08-19T10:56:34;170.73;;;12.77;;
25015;SDS011;13029;46.286;7.488;2022-08-19T10:59:19;168.20;;;12.18;;
25015;SDS011;13029;46.286;7.488;2022-08-19T11:01:49;132.63;;;11.95;;
25015;SDS011;13029;46.286;7.488;2022-08-19T11:04:16;59.92;;;8.98;;
25015;SDS011;13029;46.286;7.488;2022-08-19T11:06:46;7.50;;;6.80;;
25015;SDS011;13029;46.286;7.488;2022-08-19T11:11:43;3.45;;;2.50;;
25015;SDS011;13029;46.286;7.488;2022-08-19T11:14:14;3.33;;;3.03;;
25015;SDS011;13029;46.286;7.488;2022-08-19T11:16:41;5.63;;;3.03;;
25015;SDS011;13029;46.286;7.488;2022-08-19T11:19:08;3.83;;;2.40;;
25015;SDS011;13029;46.286;7.488;2022-08-19T11:21:38;6.30;;;2.75;;
25015;SDS011;13029;46.286;7.488;2022-08-19T11:24:07;2.60;;;2.40;;
25015;SDS011;13029;46.286;7.488;2022-08-19T11:26:34;2.45;;;2.25;;
25015;SDS011;13029;46.286;7.488;2022-08-19T11:29:00;2.80;;;2.35;;
25015;SDS011;13029;46.286;7.488;2022-08-19T11:31:27;2.70;;;2.47;;
25015;SDS011;13029;46.286;7.488;2022-08-19T11:33:59;3.10;;;2.38;;
25015;SDS011;13029;46.286;7.488;2022-08-19T11:36:26;3.17;;;2.75;;
25015;SDS011;13029;46.286;7.488;2022-08-19T11:38:52;5.45;;;3.95;;
25015;SDS011;13029;46.286;7.488;2022-08-19T11:41:19;3.83;;;3.53;;
25015;SDS011;13029;46.286;7.488;2022-08-19T11:43:45;3.50;;;3.20;;
25015;SDS011;13029;46.286;7.488;2022-08-19T11:46:12;4.43;;;3.10;;
25015;SDS011;13029;46.286;7.488;2022-08-19T11:48:38;4.25;;;3.10;;
25015;SDS011;13029;46.286;7.488;2022-08-19T11:51:05;4.40;;;2.70;;
25015;SDS011;13029;46.286;7.488;2022-08-19T11:53:32;4.40;;;2.97;;
25015;SDS011;13029;46.286;7.488;2022-08-19T11:55:58;4.45;;;2.67;;
25015;SDS011;13029;46.286;7.488;2022-08-19T11:58:23;2.75;;;2.55;;
25015;SDS011;13029;46.286;7.488;2022-08-19T12:00:49;3.33;;;2.95;;
25015;SDS011;13029;46.286;7.488;2022-08-19T12:03:15;2.78;;;2.58;;
25015;SDS011;13029;46.286;7.488;2022-08-19T12:05:41;2.95;;;2.30;;
25015;SDS011;13029;46.286;7.488;2022-08-19T12:08:07;2.40;;;2.20;;
25015;SDS011;13029;46.286;7.488;2022-08-19T12:10:33;2.85;;;2.47;;
25015;SDS011;13029;46.286;7.488;2022-08-19T12:12:59;4.40;;;2.60;;
25015;SDS011;13029;46.286;7.488;2022-08-19T12:15:24;3.75;;;2.97;;
25015;SDS011;13029;46.286;7.488;2022-08-19T12:17:52;4.22;;;2.80;;
25015;SDS011;13029;46.286;7.488;2022-08-19T12:20:21;3.08;;;2.35;;
25015;SDS011;13029;46.286;7.488;2022-08-19T12:22:47;2.92;;;2.63;;
25015;SDS011;13029;46.286;7.488;2022-08-19T12:25:13;2.60;;;2.40;;
25015;SDS011;13029;46.286;7.488;2022-08-19T12:27:38;2.40;;;2.20;;
25015;SDS011;13029;46.286;7.488;2022-08-19T12:30:04;3.00;;;2.30;;
25015;SDS011;13029;46.286;7.488;2022-08-19T12:32:30;4.80;;;2.45;;
25015;SDS011;13029;46.286;7.488;2022-08-19T12:34:56;2.85;;;2.47;;
25015;SDS011;13029;46.286;7.488;2022-08-19T12:37:21;3.47;;;2.60;;
25015;SDS011;13029;46.286;7.488;2022-08-19T12:39:46;2.63;;;2.35;;
25015;SDS011;13029;46.286;7.488;2022-08-19T12:42:12;2.40;;;2.20;;
25015;SDS011;13029;46.286;7.488;2022-08-19T12:44:39;2.72;;;2.53;;
25015;SDS011;13029;46.286;7.488;2022-08-19T12:47:05;2.50;;;2.30;;
25015;SDS011;13029;46.286;7.488;2022-08-19T12:49:31;2.50;;;2.30;;
25015;SDS011;13029;46.286;7.488;2022-08-19T12:51:59;3.42;;;2.33;;
25015;SDS011;13029;46.286;7.488;2022-08-19T12:54:25;2.40;;;2.20;;
25015;SDS011;13029;46.286;7.488;2022-08-19T12:56:51;4.70;;;3.70;;
25015;SDS011;13029;46.286;7.488;2022-08-19T12:59:16;3.33;;;2.80;;
25015;SDS011;13029;46.286;7.488;2022-08-19T13:01:43;3.42;;;2.55;;
25015;SDS011;13029;46.286;7.488;2022-08-19T13:04:09;4.32;;;3.20;;
25015;SDS011;13029;46.286;7.488;2022-08-19T13:06:35;5.13;;;2.70;;
25015;SDS011;13029;46.286;7.488;2022-08-19T13:09:01;3.47;;;3.17;;
25015;SDS011;13029;46.286;7.488;2022-08-19T13:11:26;3.95;;;2.95;;
25015;SDS011;13029;46.286;7.488;2022-08-19T13:13:52;3.30;;;3.00;;
25015;SDS011;13029;46.286;7.488;2022-08-19T13:16:20;4.07;;;3.67;;
25015;SDS011;13029;46.286;7.488;2022-08-19T13:18:46;3.70;;;3.30;;
25015;SDS011;13029;46.286;7.488;2022-08-19T13:21:12;4.18;;;3.40;;
25015;SDS011;13029;46.286;7.488;2022-08-19T13:23:38;3.65;;;3.25;;
25015;SDS011;13029;46.286;7.488;2022-08-19T13:26:05;3.42;;;3.13;;
25015;SDS011;13029;46.286;7.488;2022-08-19T13:28:32;7.05;;;3.80;;
25015;SDS011;13029;46.286;7.488;2022-08-19T13:31:17;3.90;;;3.58;;
25015;SDS011;13029;46.286;7.488;2022-08-19T13:34:02;3.65;;;3.35;;
25015;SDS011;13029;46.286;7.488;2022-08-19T13:36:27;3.97;;;3.58;;
25015;SDS011;13029;46.286;7.488;2022-08-19T13:38:52;3.85;;;3.45;;
25015;SDS011;13029;46.286;7.488;2022-08-19T13:41:18;4.85;;;3.17;;
25015;SDS011;13029;46.286;7.488;2022-08-19T13:43:44;3.70;;;2.63;;
25015;SDS011;13029;46.286;7.488;2022-08-19T13:46:10;3.83;;;3.40;;
25015;SDS011;13029;46.286;7.488;2022-08-19T13:48:38;6.18;;;5.03;;
25015;SDS011;13029;46.286;7.488;2022-08-19T13:51:04;7.32;;;5.25;;
25015;SDS011;13029;46.286;7.488;2022-08-19T13:53:29;6.15;;;4.50;;
25015;SDS011;13029;46.286;7.488;2022-08-19T13:55:55;6.13;;;5.53;;
25015;SDS011;13029;46.286;7.488;2022-08-19T13:58:21;5.88;;;5.38;;
25015;SDS011;13029;46.286;7.488;2022-08-19T14:00:47;4.47;;;4.07;;
25015;SDS011;13029;46.286;7.488;2022-08-19T14:03:13;3.90;;;3.60;;
25015;SDS011;13029;46.286;7.488;2022-08-19T14:05:38;9.50;;;4.15;;
25015;SDS011;13029;46.286;7.488;2022-08-19T14:08:04;5.90;;;4.90;;
25015;SDS011;13029;46.286;7.488;2022-08-19T14:10:29;7.70;;;6.68;;
25015;SDS011;13029;46.286;7.488;2022-08-19T14:12:57;8.30;;;5.93;;
25015;SDS011;13029;46.286;7.488;2022-08-19T14:15:24;8.98;;;6.80;;
25015;SDS011;13029;46.286;7.488;2022-08-19T14:17:50;7.20;;;6.50;;
25015;SDS011;13029;46.286;7.488;2022-08-19T14:20:16;8.80;;;7.10;;
25015;SDS011;13029;46.286;7.488;2022-08-19T14:22:42;9.27;;;6.60;;
25015;SDS011;13029;46.286;7.488;2022-08-19T14:25:09;9.00;;;6.95;;
25015;SDS011;13029;46.286;7.488;2022-08-19T14:27:37;9.30;;;6.88;;
25015;SDS011;13029;46.286;7.488;2022-08-19T14:30:04;8.55;;;6.53;;
25015;SDS011;13029;46.286;7.488;2022-08-19T14:32:31;7.80;;;6.95;;
25015;SDS011;13029;46.286;7.488;2022-08-19T14:34:57;7.75;;;6.93;;
25015;SDS011;13029;46.286;7.488;2022-08-19T14:37:23;7.53;;;6.75;;
25015;SDS011;13029;46.286;7.488;2022-08-19T14:39:48;6.90;;;6.22;;
25015;SDS011;13029;46.286;7.488;2022-08-19T14:42:13;6.55;;;4.85;;
25015;SDS011;13029;46.286;7.488;2022-08-19T14:44:39;7.43;;;4.80;;
25015;SDS011;13029;46.286;7.488;2022-08-19T14:47:05;5.25;;;4.75;;
25015;SDS011;13029;46.286;7.488;2022-08-19T14:49:32;5.45;;;4.95;;
25015;SDS011;13029;46.286;7.488;2022-08-19T14:51:58;6.75;;;5.32;;